Time;durP1;ratioP1;P1;durP2;ratioP2;P2;SDS_P1;SDS_P2;PMS_P1;PMS_P2;Temp;Humidity;BMP_temperature;BMP_pressure;BME280_temperature;BME280_humidity;BME280_pressure;Samples;Min_cycle;Max_cycle;Signal;HPM_P1;HPM_P2
2022/06/04 00:00:31;;;;;;;3.30;2.75;;;19.50;65.10;;;;;;4991825;28;20026;-76
2022/06/04 00:02:56;;;;;;;3.03;2.70;;;19.40;65.10;;;;;;5006695;28;20117;-76
2022/06/04 00:05:29;;;;;;;4.50;2.70;;;19.40;65.80;;;;;;5001673;28;20464;-75
2022/06/04 00:07:56;;;;;;;3.40;2.60;;;19.40;65.40;;;;;;5008845;28;20053;-76
2022/06/04 00:15:59;;;;;;;;;;;19.40;65.50;;;;;;4995914;28;20037;-74
2022/06/04 00:18:25;;;;;;;3.65;2.85;;;19.40;65.30;;;;;;5008471;28;19910;-74
2022/06/04 00:20:52;;;;;;;4.38;2.70;;;19.30;65.90;;;;;;4995713;28;20125;-75
2022/06/04 00:23:18;;;;;;;3.53;2.63;;;19.30;66.30;;;;;;4995506;28;20485;-74
2022/06/04 00:25:49;;;;;;;4.85;2.67;;;19.30;66.30;;;;;;4994636;28;20041;-75
2022/06/04 00:28:15;;;;;;;4.55;3.00;;;19.30;66.70;;;;;;4996994;28;20026;-75
2022/06/04 00:30:40;;;;;;;4.40;2.67;;;19.30;67.10;;;;;;4997481;28;20462;-74
2022/06/04 00:33:06;;;;;;;3.85;2.95;;;19.20;67.10;;;;;;5011677;28;20038;-75
2022/06/04 00:35:33;;;;;;;4.03;3.20;;;19.20;67.30;;;;;;4994685;28;20458;-75
2022/06/04 00:37:59;;;;;;;4.70;2.92;;;19.10;67.70;;;;;;5007773;28;20040;-76
2022/06/04 00:40:31;;;;;;;5.30;2.90;;;19.10;67.80;;;;;;4996023;28;20122;-75
2022/06/04 00:42:57;;;;;;;6.22;3.03;;;19.10;68.10;;;;;;4994932;28;20082;-75
2022/06/04 00:45:23;;;;;;;4.55;3.00;;;19.10;68.10;;;;;;5007725;28;20034;-75
2022/06/04 00:47:49;;;;;;;4.43;3.47;;;19.10;68.40;;;;;;5009977;28;20033;-75
2022/06/04 00:50:18;;;;;;;3.90;3.30;;;19.10;68.60;;;;;;4998516;28;20048;-75
2022/06/04 00:52:46;;;;;;;3.92;2.95;;;19.10;68.90;;;;;;4994271;28;20074;-74
2022/06/04 00:55:13;;;;;;;3.83;2.92;;;19.00;68.90;;;;;;4994603;28;20061;-73
2022/06/04 00:57:54;;;;;;;4.75;3.00;;;19.00;69.10;;;;;;5005744;28;20080;-74
2022/06/04 01:00:40;;;;;;;4.63;3.70;;;19.00;69.20;;;;;;4998348;28;20034;-74
2022/06/04 01:03:50;;;;;;;5.65;3.33;;;18.90;69.30;;;;;;4995034;28;20072;-74
2022/06/04 01:06:27;;;;;;;5.60;3.20;;;18.90;69.50;;;;;;4994272;28;20033;-73
2022/06/04 01:09:12;;;;;;;4.07;3.10;;;18.80;69.90;;;;;;4993978;28;20031;-74
2022/06/04 01:12:11;;;;;;;3.38;2.88;;;18.80;69.90;;;;;;5011225;28;20037;-74
2022/06/04 01:14:49;;;;;;;5.57;3.10;;;18.80;70.10;;;;;;5010283;28;20030;-74
2022/06/04 01:18:02;;;;;;;4.20;3.40;;;18.80;70.30;;;;;;5003896;28;20023;-74
2022/06/04 01:21:13;;;;;;;4.07;2.85;;;18.80;70.30;;;;;;4993548;28;20033;-74
2022/06/04 01:24:06;;;;;;;3.40;2.90;;;18.80;70.60;;;;;;5000099;28;20034;-74
2022/06/04 01:26:44;;;;;;;7.03;3.08;;;18.80;70.90;;;;;;4995522;28;20045;-74
2022/06/04 01:29:15;;;;;;;5.97;3.45;;;18.70;71.00;;;;;;4994568;28;20426;-74
2022/06/04 01:31:46;;;;;;;5.05;3.30;;;18.80;71.40;;;;;;5007915;28;20027;-75
2022/06/04 01:34:18;;;;;;;5.68;3.42;;;18.70;71.70;;;;;;4996520;28;20038;-74
2022/06/04 01:36:59;;;;;;;8.75;3.75;;;18.70;72.00;;;;;;5005509;28;20089;-75
2022/06/04 01:39:27;;;;;;;4.93;3.35;;;18.60;72.10;;;;;;4993146;28;20034;-75
2022/06/04 01:42:02;;;;;;;4.38;3.28;;;18.60;72.60;;;;;;4997022;28;20068;-75
2022/06/04 01:44:34;;;;;;;5.30;3.25;;;18.50;73.10;;;;;;4993233;28;20498;-75
2022/06/04 01:47:05;;;;;;;5.80;3.17;;;18.50;73.00;;;;;;4998424;28;20026;-76
2022/06/04 01:49:48;;;;;;;4.18;3.25;;;18.50;73.40;;;;;;4993107;28;20050;-75
2022/06/04 01:52:15;;;;;;;4.88;3.17;;;18.50;73.40;;;;;;5006191;28;21767;-75
2022/06/04 01:55:02;;;;;;;6.55;3.30;;;18.40;73.60;;;;;;4992957;28;20022;-76
2022/06/04 01:57:30;;;;;;;5.65;3.40;;;18.40;74.00;;;;;;5005216;28;20054;-75
2022/06/04 02:00:02;;;;;;;4.63;3.15;;;18.40;74.20;;;;;;4991747;28;20062;-75
2022/06/04 02:02:39;;;;;;;5.45;4.00;;;18.30;74.30;;;;;;5008025;28;20030;-69
2022/06/04 02:05:12;;;;;;;5.03;3.13;;;18.30;74.60;;;;;;5012570;28;20630;-67
2022/06/04 02:07:41;;;;;;;3.75;3.10;;;18.30;74.60;;;;;;5008243;28;20064;-68
2022/06/04 02:10:14;;;;;;;4.95;3.33;;;18.20;74.80;;;;;;5004416;28;20121;-68
2022/06/04 02:12:43;;;;;;;5.95;3.25;;;18.20;75.20;;;;;;5008761;28;20113;-69
2022/06/04 02:15:14;;;;;;;5.05;3.47;;;18.10;75.20;;;;;;5011674;28;20029;-67
2022/06/04 02:17:41;;;;;;;5.07;3.00;;;18.10;75.30;;;;;;5008006;28;20025;-68
2022/06/04 02:20:08;;;;;;;4.45;3.20;;;18.20;75.20;;;;;;4994279;28;20030;-69
2022/06/04 02:22:35;;;;;;;5.50;3.28;;;18.20;75.20;;;;;;5005979;28;20061;-68
2022/06/04 02:25:03;;;;;;;6.30;3.25;;;18.20;75.30;;;;;;5007385;28;20029;-68
2022/06/04 02:27:29;;;;;;;3.55;3.00;;;18.20;75.40;;;;;;5007836;28;20034;-68
2022/06/04 02:29:54;;;;;;;4.75;3.33;;;18.20;75.30;;;;;;5010060;28;20484;-68
2022/06/04 02:32:33;;;;;;;4.93;3.45;;;18.20;75.40;;;;;;4994364;28;20039;-68
2022/06/04 02:35:28;;;;;;;5.25;3.17;;;18.20;75.30;;;;;;4992417;28;20048;-68
2022/06/04 02:38:02;;;;;;;5.00;3.08;;;18.20;75.30;;;;;;4991809;28;20050;-68
2022/06/04 02:40:35;;;;;;;6.97;3.00;;;18.20;75.20;;;;;;4992706;28;20030;-69
2022/06/04 02:43:15;;;;;;;5.40;2.90;;;18.20;75.30;;;;;;4992813;28;20175;-69
2022/06/04 02:45:44;;;;;;;5.53;3.15;;;18.10;75.40;;;;;;4994325;28;20541;-70
2022/06/04 02:48:28;;;;;;;5.80;3.13;;;18.10;75.40;;;;;;5007013;28;20042;-70
2022/06/04 02:50:59;;;;;;;6.75;3.42;;;18.10;75.50;;;;;;5008952;28;20030;-70
2022/06/04 02:53:29;;;;;;;5.13;3.08;;;18.00;75.60;;;;;;5005599;28;20052;-70
2022/06/04 02:55:59;;;;;;;3.78;2.83;;;18.00;75.70;;;;;;5003508;28;20026;-70
2022/06/04 02:58:27;;;;;;;6.75;3.08;;;17.90;75.60;;;;;;5010935;28;20068;-70
2022/06/04 03:00:56;;;;;;;4.80;3.05;;;17.90;75.60;;;;;;5000350;28;20413;-70
2022/06/04 03:03:23;;;;;;;6.18;3.28;;;17.80;75.70;;;;;;4992758;28;20038;-69
2022/06/04 03:05:57;;;;;;;4.20;2.92;;;17.80;75.70;;;;;;4998906;28;20025;-70
2022/06/04 03:08:25;;;;;;;4.72;2.80;;;17.70;75.80;;;;;;4992792;28;20038;-78
2022/06/04 03:10:51;;;;;;;3.35;2.70;;;17.70;76.00;;;;;;5006428;28;20078;-80
2022/06/04 03:13:17;;;;;;;4.93;3.15;;;17.70;76.00;;;;;;4993502;28;20074;-79
2022/06/04 03:15:43;;;;;;;4.82;2.80;;;17.60;76.00;;;;;;5002222;28;20034;-71
2022/06/04 03:18:09;;;;;;;5.75;3.00;;;17.70;75.90;;;;;;5010068;28;20214;-70
2022/06/04 03:20:35;;;;;;;4.72;3.08;;;17.60;76.00;;;;;;5002013;28;20034;-72
2022/06/04 03:23:00;;;;;;;5.30;3.13;;;17.60;76.10;;;;;;5007236;28;20081;-73
2022/06/04 03:25:26;;;;;;;5.97;2.88;;;17.60;76.10;;;;;;5009748;28;20093;-72
2022/06/04 03:27:52;;;;;;;6.65;2.95;;;17.60;76.40;;;;;;5011511;28;20040;-73
2022/06/04 03:30:18;;;;;;;4.53;2.55;;;17.60;76.30;;;;;;4993793;28;20355;-71
2022/06/04 03:32:44;;;;;;;7.10;3.00;;;17.60;76.40;;;;;;4992699;28;20038;-71
2022/06/04 03:35:10;;;;;;;4.20;2.80;;;17.70;76.40;;;;;;5007681;28;20076;-71
2022/06/04 03:37:36;;;;;;;5.35;2.65;;;17.70;76.40;;;;;;5010807;28;20036;-71
2022/06/04 03:40:04;;;;;;;4.75;2.78;;;17.70;76.30;;;;;;5009889;28;20113;-70
2022/06/04 03:42:29;;;;;;;5.00;3.13;;;17.70;76.40;;;;;;4997821;28;20042;-71
2022/06/04 03:44:55;;;;;;;4.20;2.85;;;17.70;76.30;;;;;;5006045;28;20538;-71
2022/06/04 03:47:21;;;;;;;4.95;2.85;;;17.70;76.30;;;;;;5013729;28;20467;-70
2022/06/04 03:49:47;;;;;;;3.97;2.53;;;17.60;76.30;;;;;;5003625;28;20034;-72
2022/06/04 03:52:14;;;;;;;7.53;3.35;;;17.60;76.10;;;;;;5010601;28;20034;-72
2022/06/04 03:54:55;;;;;;;3.75;2.67;;;17.60;76.10;;;;;;5004842;28;20034;-72
2022/06/04 03:57:41;;;;;;;4.65;2.65;;;17.70;76.10;;;;;;4997944;28;20030;-72
2022/06/04 04:00:13;;;;;;;3.92;3.15;;;17.60;75.80;;;;;;4995668;28;20494;-71
2022/06/04 04:02:41;;;;;;;6.13;2.97;;;17.70;75.90;;;;;;5013995;28;20034;-70
2022/06/04 04:05:09;;;;;;;5.28;2.78;;;17.60;75.70;;;;;;5014515;28;20084;-68
2022/06/04 04:07:35;;;;;;;3.92;2.63;;;17.60;75.80;;;;;;5013024;28;20030;-69
2022/06/04 04:10:00;;;;;;;4.32;2.70;;;17.60;75.70;;;;;;5006151;28;20162;-67
2022/06/04 04:12:28;;;;;;;7.55;2.70;;;17.60;75.70;;;;;;5009342;28;20475;-68
2022/06/04 04:14:53;;;;;;;4.72;2.53;;;17.60;75.60;;;;;;4999411;28;20486;-68
2022/06/04 04:17:19;;;;;;;3.72;2.50;;;17.60;75.50;;;;;;4997849;28;20183;-68
2022/06/04 04:19:45;;;;;;;5.72;2.97;;;17.50;75.50;;;;;;4994917;28;20121;-68
2022/06/04 04:22:11;;;;;;;4.13;3.00;;;17.50;75.60;;;;;;5009398;28;20524;-67
2022/06/04 04:24:36;;;;;;;3.85;2.55;;;17.50;75.60;;;;;;5013846;28;20473;-67
2022/06/04 04:27:02;;;;;;;3.92;2.67;;;17.50;75.50;;;;;;5009611;28;20030;-68
2022/06/04 04:29:27;;;;;;;5.03;2.60;;;17.40;75.40;;;;;;5011633;28;20064;-68
2022/06/04 04:31:53;;;;;;;4.25;2.92;;;17.50;75.50;;;;;;5006858;28;20597;-68
2022/06/04 04:34:18;;;;;;;5.30;2.80;;;17.50;75.50;;;;;;5013977;28;20037;-68
2022/06/04 04:36:45;;;;;;;3.92;2.60;;;17.50;75.30;;;;;;5002318;28;20018;-67
2022/06/04 04:39:11;;;;;;;4.05;2.70;;;17.50;75.20;;;;;;5013509;28;20041;-68
2022/06/04 04:41:37;;;;;;;4.57;3.30;;;17.40;75.20;;;;;;5008727;28;20026;-68
2022/06/04 04:44:03;;;;;;;3.97;2.90;;;17.50;75.20;;;;;;5001319;28;20210;-68
2022/06/04 04:46:29;;;;;;;5.72;2.85;;;17.50;75.30;;;;;;5008415;28;20030;-68
2022/06/04 04:48:54;;;;;;;3.58;2.65;;;17.50;74.90;;;;;;4992713;28;20459;-67
2022/06/04 04:51:23;;;;;;;5.95;2.92;;;17.50;74.90;;;;;;4993938;28;20097;-67
2022/06/04 04:53:50;;;;;;;4.90;3.20;;;17.50;74.70;;;;;;5008108;28;20061;-68
2022/06/04 04:56:20;;;;;;;2.78;2.40;;;17.50;74.70;;;;;;5005619;28;20014;-67
2022/06/04 04:58:46;;;;;;;4.43;2.80;;;17.50;74.70;;;;;;5000014;28;20031;-67
2022/06/04 05:01:17;;;;;;;5.70;3.08;;;17.50;74.50;;;;;;5007997;28;20030;-68
2022/06/04 05:03:44;;;;;;;3.28;2.20;;;17.60;74.90;;;;;;5012140;28;20101;-68
2022/06/04 05:06:13;;;;;;;4.30;2.67;;;17.60;74.40;;;;;;5012250;28;20397;-68
2022/06/04 05:08:38;;;;;;;4.90;2.72;;;17.70;74.20;;;;;;4996641;28;20023;-67
2022/06/04 05:11:19;;;;;;;6.60;3.25;;;17.70;74.30;;;;;;5006039;28;20097;-68
2022/06/04 05:13:51;;;;;;;5.30;2.50;;;17.70;74.00;;;;;;5001267;28;20048;-68
2022/06/04 05:16:18;;;;;;;4.28;2.63;;;17.70;74.30;;;;;;5005123;28;20060;-67
2022/06/04 05:18:44;;;;;;;7.18;2.72;;;17.70;73.50;;;;;;5002711;28;20091;-67
2022/06/04 05:21:16;;;;;;;3.70;2.42;;;17.80;73.80;;;;;;5006097;28;20031;-68
2022/06/04 05:23:41;;;;;;;3.95;2.42;;;17.80;73.30;;;;;;5006473;28;20033;-68
2022/06/04 05:26:07;;;;;;;3.88;2.60;;;17.80;73.50;;;;;;5006531;28;20027;-68
2022/06/04 05:28:33;;;;;;;3.70;2.40;;;17.90;73.30;;;;;;5004886;28;20532;-68
2022/06/04 05:30:58;;;;;;;4.00;2.75;;;17.90;73.20;;;;;;5011409;28;20473;-68
2022/06/04 05:33:24;;;;;;;6.07;2.70;;;18.00;73.10;;;;;;5012328;28;20045;-68
2022/06/04 05:35:49;;;;;;;4.47;2.70;;;18.00;72.90;;;;;;5011684;28;20022;-68
2022/06/04 05:38:15;;;;;;;3.55;2.33;;;18.00;72.60;;;;;;5007968;28;20109;-69
2022/06/04 05:40:41;;;;;;;5.05;2.70;;;18.10;72.70;;;;;;5003405;28;20030;-66
2022/06/04 05:43:06;;;;;;;5.75;2.80;;;18.10;72.40;;;;;;5012342;28;20034;-68
2022/06/04 05:45:32;;;;;;;3.53;2.70;;;18.20;72.30;;;;;;5010571;28;20069;-69
2022/06/04 05:47:57;;;;;;;3.92;2.42;;;18.20;72.00;;;;;;4996750;28;20033;-69
2022/06/04 05:50:23;;;;;;;4.85;2.70;;;18.30;71.60;;;;;;4998299;28;20443;-68
2022/06/04 05:52:48;;;;;;;4.13;2.47;;;18.40;71.70;;;;;;4997832;28;20041;-66
2022/06/04 05:55:14;;;;;;;5.05;2.70;;;18.40;71.70;;;;;;5012467;28;20026;-68
2022/06/04 05:57:40;;;;;;;3.53;2.50;;;18.50;71.40;;;;;;5011437;28;20159;-67
2022/06/04 06:00:08;;;;;;;3.97;2.65;;;18.50;71.10;;;;;;5011336;28;20066;-68
2022/06/04 06:02:34;;;;;;;5.72;2.78;;;18.60;71.00;;;;;;4999285;28;20036;-68
2022/06/04 06:05:00;;;;;;;4.60;2.78;;;18.70;70.90;;;;;;4993659;28;20406;-68
2022/06/04 06:07:26;;;;;;;4.35;2.80;;;18.70;70.90;;;;;;5001738;28;20036;-68
2022/06/04 06:09:51;;;;;;;7.57;3.15;;;18.70;70.80;;;;;;5016094;28;20041;-68
2022/06/04 06:12:17;;;;;;;4.78;2.78;;;18.80;70.70;;;;;;5013714;28;20110;-68
2022/06/04 06:14:43;;;;;;;5.28;3.10;;;18.90;70.70;;;;;;5009683;28;20038;-68
2022/06/04 06:17:09;;;;;;;5.47;3.03;;;18.80;70.20;;;;;;5009762;28;20041;-68
2022/06/04 06:19:34;;;;;;;4.25;3.17;;;18.90;70.60;;;;;;5005952;28;20073;-67
2022/06/04 06:22:00;;;;;;;3.80;2.72;;;18.90;70.20;;;;;;5004395;28;20038;-69
2022/06/04 06:24:25;;;;;;;4.22;3.28;;;18.90;70.40;;;;;;5013298;28;20029;-68
2022/06/04 06:26:54;;;;;;;4.53;2.58;;;18.90;70.00;;;;;;5004373;28;20033;-68
2022/06/04 06:29:30;;;;;;;5.68;2.92;;;18.90;70.30;;;;;;5002789;28;20445;-69
2022/06/04 06:31:57;;;;;;;6.00;2.88;;;18.90;70.70;;;;;;5004103;28;20150;-69
2022/06/04 06:34:24;;;;;;;4.80;3.17;;;19.00;70.60;;;;;;5002107;28;20073;-69
2022/06/04 06:36:50;;;;;;;4.47;3.05;;;19.10;70.40;;;;;;5006352;28;20386;-69
2022/06/04 06:39:16;;;;;;;3.42;3.05;;;19.20;70.10;;;;;;5010499;28;20025;-68
2022/06/04 06:41:41;;;;;;;6.55;3.10;;;19.20;69.90;;;;;;5011199;28;20030;-69
2022/06/04 06:44:09;;;;;;;4.55;3.38;;;19.30;70.10;;;;;;5004688;28;20030;-69
2022/06/04 06:46:39;;;;;;;5.75;2.97;;;19.50;70.30;;;;;;5008728;28;20478;-69
2022/06/04 06:49:11;;;;;;;5.80;3.10;;;19.60;69.30;;;;;;5011980;28;20084;-68
2022/06/04 06:51:41;;;;;;;4.88;3.40;;;19.60;69.40;;;;;;5006979;28;20386;-68
2022/06/04 06:54:08;;;;;;;7.28;3.53;;;19.70;69.00;;;;;;5010777;28;20029;-68
2022/06/04 06:56:37;;;;;;;5.65;3.22;;;19.70;68.60;;;;;;4998662;28;20100;-68
2022/06/04 06:59:04;;;;;;;4.28;3.08;;;19.70;68.60;;;;;;5001390;28;20029;-68
2022/06/04 07:01:31;;;;;;;6.90;3.78;;;19.80;68.70;;;;;;5009394;28;20108;-68
2022/06/04 07:03:57;;;;;;;4.90;3.60;;;19.80;68.20;;;;;;5018787;28;20110;-68
2022/06/04 07:06:33;;;;;;;5.20;3.40;;;19.80;68.50;;;;;;5011911;28;20030;-69
2022/06/04 07:09:01;;;;;;;6.10;3.35;;;19.90;68.30;;;;;;5009491;28;20041;-68
2022/06/04 07:11:27;;;;;;;6.28;3.42;;;20.00;68.50;;;;;;5007877;28;20041;-69
2022/06/04 07:13:53;;;;;;;6.43;3.67;;;20.00;68.30;;;;;;5002492;28;20044;-69
2022/06/04 07:16:19;;;;;;;4.53;3.22;;;20.10;68.50;;;;;;5002781;28;20034;-69
2022/06/04 07:18:44;;;;;;;4.47;2.92;;;20.20;68.10;;;;;;5014557;28;20377;-68
2022/06/04 07:21:10;;;;;;;6.70;3.15;;;20.30;67.70;;;;;;5006592;28;20025;-68
2022/06/04 07:23:37;;;;;;;6.03;3.08;;;20.30;67.20;;;;;;5012690;28;20107;-69
2022/06/04 07:26:04;;;;;;;4.43;3.30;;;20.40;67.10;;;;;;5005071;28;20545;-68
2022/06/04 07:28:30;;;;;;;4.32;3.40;;;20.40;66.80;;;;;;5010524;28;20033;-68
2022/06/04 07:30:56;;;;;;;5.18;3.28;;;20.40;66.90;;;;;;5006778;28;20613;-69
2022/06/04 07:33:22;;;;;;;5.03;3.33;;;20.40;67.30;;;;;;5012155;28;20046;-68
2022/06/04 07:35:51;;;;;;;5.03;3.42;;;20.40;66.70;;;;;;5012176;28;20053;-68
2022/06/04 07:38:17;;;;;;;4.93;3.58;;;20.40;66.30;;;;;;5013507;28;20045;-68
2022/06/04 07:40:44;;;;;;;6.50;3.60;;;20.50;65.80;;;;;;5005918;28;20029;-69
2022/06/04 07:43:11;;;;;;;3.58;3.00;;;20.50;66.00;;;;;;4999960;28;20093;-68
2022/06/04 07:45:37;;;;;;;6.70;3.20;;;20.50;65.60;;;;;;5000735;28;20129;-67
2022/06/04 07:48:04;;;;;;;7.18;3.55;;;20.40;64.90;;;;;;4995189;28;20070;-67
2022/06/04 07:50:30;;;;;;;4.43;3.20;;;20.30;64.60;;;;;;5007603;28;20056;-68
2022/06/04 07:52:57;;;;;;;4.28;3.20;;;20.20;64.50;;;;;;4999669;28;20037;-67
2022/06/04 07:55:23;;;;;;;4.53;3.13;;;20.20;64.80;;;;;;5009264;28;20034;-68
2022/06/04 07:57:48;;;;;;;4.32;2.65;;;20.10;65.00;;;;;;4997646;28;20417;-68
2022/06/04 08:00:15;;;;;;;4.80;2.78;;;20.10;65.20;;;;;;5009139;28;20026;-68
2022/06/04 08:02:42;;;;;;;5.13;3.10;;;20.10;64.60;;;;;;4996211;28;20022;-68
2022/06/04 08:05:08;;;;;;;3.88;2.50;;;20.10;64.70;;;;;;4998393;28;20060;-67
2022/06/04 08:07:36;;;;;;;6.82;3.38;;;20.10;65.00;;;;;;5011659;28;20117;-67
2022/06/04 08:10:02;;;;;;;4.25;2.95;;;20.10;65.20;;;;;;5007463;28;20424;-68
2022/06/04 08:12:32;;;;;;;4.72;3.17;;;20.10;64.80;;;;;;5006021;28;20129;-68
2022/06/04 08:14:58;;;;;;;4.18;3.10;;;20.00;64.50;;;;;;5011794;28;20103;-68
2022/06/04 08:17:25;;;;;;;4.03;2.50;;;20.00;65.00;;;;;;5004374;28;20073;-68
2022/06/04 08:19:51;;;;;;;5.93;2.80;;;20.00;64.80;;;;;;5005760;28;20084;-68
2022/06/04 08:22:16;;;;;;;4.07;2.22;;;20.00;64.80;;;;;;5010590;28;20033;-67
2022/06/04 08:24:42;;;;;;;3.97;2.67;;;20.00;65.00;;;;;;5014344;28;20393;-68
2022/06/04 08:27:07;;;;;;;5.75;3.22;;;20.00;65.10;;;;;;5010266;28;20034;-68
2022/06/04 08:29:37;;;;;;;3.13;2.45;;;20.00;65.00;;;;;;5017925;28;20437;-68
2022/06/04 08:32:04;;;;;;;6.10;2.40;;;20.00;65.20;;;;;;5005720;28;20029;-68
2022/06/04 08:34:31;;;;;;;5.45;2.53;;;20.00;64.60;;;;;;5006920;28;20065;-68
2022/06/04 08:36:57;;;;;;;3.38;2.38;;;20.00;65.10;;;;;;5007845;28;20033;-68
2022/06/04 08:39:23;;;;;;;5.35;2.60;;;20.10;65.00;;;;;;5012510;28;20034;-67
2022/06/04 08:42:11;;;;;;;3.10;2.20;;;20.10;64.90;;;;;;5011634;28;20133;-67
2022/06/04 08:44:52;;;;;;;3.75;2.28;;;20.20;64.90;;;;;;5020858;28;20030;-67
2022/06/04 08:47:31;;;;;;;5.07;2.75;;;20.20;64.70;;;;;;5010735;28;20037;-67
2022/06/04 08:50:04;;;;;;;4.65;2.17;;;20.20;64.80;;;;;;5002527;28;20488;-68
2022/06/04 08:52:43;;;;;;;5.65;2.40;;;20.30;64.70;;;;;;5013381;28;20038;-69
2022/06/04 08:58:49;;;;;;;4.70;2.10;;;20.50;64.80;;;;;;5001888;28;20042;-68
2022/06/04 09:01:25;;;;;;;5.15;2.92;;;20.50;64.80;;;;;;5013710;28;20113;-68
2022/06/04 09:04:10;;;;;;;2.85;2.08;;;20.60;65.40;;;;;;4996425;28;20117;-69
2022/06/04 09:06:38;;;;;;;3.83;2.58;;;20.60;64.60;;;;;;5004945;28;20087;-68
2022/06/04 09:09:15;;;;;;;6.53;3.08;;;20.70;64.50;;;;;;4997744;28;20045;-68
2022/06/04 09:11:54;;;;;;;2.75;2.20;;;20.80;65.20;;;;;;5013775;28;20042;-68
2022/06/04 09:14:41;;;;;;;3.53;2.35;;;21.00;65.20;;;;;;4998159;28;20042;-68
2022/06/04 09:17:14;;;;;;;6.45;2.85;;;21.00;65.00;;;;;;5007587;28;20048;-69
2022/06/04 09:19:43;;;;;;;3.22;1.92;;;21.20;64.90;;;;;;5009989;28;20037;-68
2022/06/04 09:22:21;;;;;;;5.65;2.83;;;21.30;64.20;;;;;;5006212;28;20026;-68
2022/06/04 09:24:47;;;;;;;4.28;2.30;;;21.40;64.10;;;;;;5009170;28;20047;-67
2022/06/04 09:27:36;;;;;;;6.25;2.90;;;21.50;64.60;;;;;;5009073;28;20470;-68
2022/06/04 09:30:09;;;;;;;3.60;2.53;;;21.60;64.30;;;;;;5007940;28;20092;-67
2022/06/04 09:33:23;;;;;;;4.60;2.60;;;21.60;64.10;;;;;;5000450;28;20037;-67
2022/06/04 09:35:48;;;;;;;4.32;2.40;;;21.70;63.70;;;;;;5004194;28;20034;-68
2022/06/04 09:38:29;;;;;;;3.97;2.28;;;21.60;63.00;;;;;;4996007;28;20418;-67
2022/06/04 09:41:04;;;;;;;6.07;2.45;;;21.60;63.10;;;;;;5009364;28;20105;-68
2022/06/04 09:43:31;;;;;;;3.75;2.25;;;21.50;62.90;;;;;;4999622;28;20035;-68
2022/06/04 09:46:00;;;;;;;3.03;2.13;;;21.50;62.20;;;;;;4997785;28;20026;-69
2022/06/04 09:48:31;;;;;;;3.08;2.15;;;21.50;62.40;;;;;;4996723;28;20121;-66
2022/06/04 09:51:00;;;;;;;4.88;2.45;;;21.50;62.50;;;;;;5007612;28;20038;-66
2022/06/04 09:53:30;;;;;;;3.75;2.03;;;21.50;62.60;;;;;;5019534;28;20129;-66
2022/06/04 09:56:10;;;;;;;4.45;2.78;;;21.50;62.30;;;;;;5003226;28;20796;-66
2022/06/04 09:58:41;;;;;;;5.75;2.40;;;21.50;62.70;;;;;;4992371;28;20035;-66
2022/06/04 10:01:23;;;;;;;3.67;2.08;;;21.50;62.30;;;;;;5003758;28;20440;-67
2022/06/04 10:04:11;;;;;;;4.53;2.25;;;21.50;62.30;;;;;;4992881;28;20222;-67
2022/06/04 10:06:37;;;;;;;5.40;2.10;;;21.60;62.50;;;;;;5003297;28;20359;-67
2022/06/04 10:12:03;;;;;;;5.43;2.80;;;21.70;62.40;;;;;;5012048;28;20442;-67
2022/06/04 10:14:32;;;;;;;3.22;2.15;;;21.80;62.50;;;;;;5003658;28;20041;-67
2022/06/04 10:16:59;;;;;;;3.58;2.28;;;21.90;62.30;;;;;;5003921;28;20374;-67
2022/06/04 10:19:26;;;;;;;4.88;2.45;;;22.00;62.30;;;;;;5009622;28;20038;-67
2022/06/04 10:22:12;;;;;;;4.18;2.38;;;22.00;61.80;;;;;;5009402;28;20026;-67
2022/06/04 10:24:58;;;;;;;3.58;2.53;;;22.10;61.90;;;;;;5006402;28;20429;-67
2022/06/04 10:28:01;;;;;;;5.18;2.50;;;22.20;62.60;;;;;;5003361;28;20394;-67
2022/06/04 10:30:50;;;;;;;7.97;2.55;;;22.40;62.40;;;;;;5008254;28;20037;-67
2022/06/04 10:33:42;;;;;;;4.07;2.63;;;22.50;61.50;;;;;;4992460;28;20376;-67
2022/06/04 10:36:14;;;;;;;5.88;2.67;;;22.60;61.10;;;;;;5009527;28;20052;-68
2022/06/04 10:38:51;;;;;;;4.07;2.22;;;22.70;61.20;;;;;;4998243;28;20490;-67
2022/06/04 10:41:32;;;;;;;4.00;2.70;;;22.80;61.50;;;;;;5012020;28;20101;-67
2022/06/04 10:44:03;;;;;;;5.43;2.40;;;23.00;61.00;;;;;;4993441;28;20481;-67
2022/06/04 10:46:52;;;;;;;5.38;2.63;;;23.10;60.70;;;;;;5009334;28;20059;-66
2022/06/04 10:49:53;;;;;;;3.95;2.72;;;23.30;60.80;;;;;;4991734;28;20536;-66
2022/06/04 10:52:38;;;;;;;3.65;2.50;;;23.40;60.60;;;;;;5004798;28;20074;-66
2022/06/04 10:55:12;;;;;;;4.75;2.20;;;23.50;61.20;;;;;;4998871;28;20567;-66
2022/06/04 10:58:05;;;;;;;5.13;2.60;;;23.60;60.10;;;;;;5000503;28;20496;-66
2022/06/04 11:00:40;;;;;;;4.30;3.30;;;23.70;59.50;;;;;;5007085;28;20118;-66
2022/06/04 11:03:47;;;;;;;3.47;2.08;;;23.90;59.00;;;;;;4999832;28;20035;-67
2022/06/04 11:06:31;;;;;;;7.63;2.67;;;24.00;58.60;;;;;;4995036;28;20052;-67
2022/06/04 11:09:01;;;;;;;5.88;2.53;;;24.20;58.60;;;;;;5008876;28;20109;-66
2022/06/04 11:11:53;;;;;;;2.90;2.28;;;24.30;58.20;;;;;;5002375;28;20038;-66
2022/06/04 11:14:44;;;;;;;3.00;2.33;;;24.30;58.60;;;;;;4990075;28;20144;-66
2022/06/04 11:17:22;;;;;;;5.15;2.35;;;24.40;58.60;;;;;;4995854;28;20042;-66
2022/06/04 11:19:55;;;;;;;4.65;2.55;;;24.50;58.20;;;;;;4995907;28;20416;-66
2022/06/04 11:22:37;;;;;;;3.50;2.30;;;24.60;57.80;;;;;;4994409;28;20030;-66
2022/06/04 11:25:32;;;;;;;6.18;2.95;;;24.60;57.30;;;;;;5008800;28;20108;-66
2022/06/04 11:28:02;;;;;;;3.10;2.33;;;24.60;57.10;;;;;;4995492;28;20069;-66
2022/06/04 11:31:03;;;;;;;3.90;2.30;;;24.70;57.50;;;;;;4996714;28;20038;-66
2022/06/04 11:33:57;;;;;;;3.20;2.15;;;24.70;57.20;;;;;;4982361;28;20049;-66
2022/06/04 11:36:32;;;;;;;4.82;2.55;;;24.80;56.20;;;;;;5009506;28;20034;-67
2022/06/04 11:39:31;;;;;;;2.80;2.15;;;24.70;56.10;;;;;;5010115;28;20038;-65
2022/06/04 11:42:17;;;;;;;2.97;2.38;;;24.70;56.40;;;;;;4991834;28;20022;-66
2022/06/04 11:44:51;;;;;;;3.15;2.13;;;24.70;56.50;;;;;;5012880;28;20038;-66
2022/06/04 11:47:42;;;;;;;4.55;2.33;;;24.80;56.00;;;;;;4992885;28;20478;-66
2022/06/04 11:50:27;;;;;;;4.38;2.50;;;24.90;56.20;;;;;;4998401;28;20030;-66
2022/06/04 11:53:08;;;;;;;6.38;2.63;;;24.90;55.70;;;;;;5009545;28;20050;-65
2022/06/04 11:55:50;;;;;;;3.88;2.10;;;24.90;55.10;;;;;;5018856;28;20088;-65
2022/06/04 11:58:28;;;;;;;4.90;2.13;;;24.80;55.10;;;;;;5013690;28;20045;-65
2022/06/04 12:00:58;;;;;;;6.13;2.90;;;24.80;54.60;;;;;;5015898;28;20085;-64
2022/06/04 12:03:36;;;;;;;3.10;2.00;;;24.80;54.90;;;;;;5005932;28;20033;-65
2022/06/04 12:06:02;;;;;;;2.90;2.05;;;24.90;54.80;;;;;;5012066;28;20026;-66
2022/06/04 12:08:33;;;;;;;2.70;1.98;;;24.90;55.20;;;;;;5017642;28;20030;-65
2022/06/04 12:11:15;;;;;;;2.90;2.30;;;24.90;55.10;;;;;;5002345;28;20046;-66
2022/06/04 12:13:56;;;;;;;4.63;2.55;;;25.10;55.30;;;;;;5002500;28;20045;-66
2022/06/04 12:16:29;;;;;;;3.53;2.42;;;25.20;54.40;;;;;;5007266;28;20036;-67
2022/06/04 12:25:18;;;;;;;3.22;2.25;;;25.30;55.40;;;;;;5030445;28;20057;-67
2022/06/04 12:27:59;;;;;;;3.38;2.35;;;25.30;55.30;;;;;;5018848;28;20029;-66
2022/06/04 12:30:37;;;;;;;3.22;2.30;;;25.40;55.50;;;;;;5029239;28;20084;-66
2022/06/04 12:33:26;;;;;;;2.97;2.20;;;25.30;55.30;;;;;;5012345;28;20038;-66
2022/06/04 12:35:55;;;;;;;3.55;2.20;;;25.30;55.30;;;;;;4990118;28;20039;-67
2022/06/04 12:38:22;;;;;;;2.85;2.33;;;25.40;55.50;;;;;;4995959;28;20077;-65
2022/06/04 12:40:48;;;;;;;3.33;2.13;;;25.50;56.30;;;;;;5022402;28;20045;-65
2022/06/04 12:43:14;;;;;;;4.53;2.50;;;25.50;56.60;;;;;;5031281;28;20033;-65
2022/06/04 12:45:40;;;;;;;4.53;2.50;;;25.60;56.80;;;;;;5033978;28;20026;-65
2022/06/04 12:48:23;;;;;;;5.22;2.70;;;25.60;56.70;;;;;;5015223;28;20057;-66
2022/06/04 12:51:01;;;;;;;3.65;2.55;;;25.70;56.90;;;;;;4993921;28;20029;-66
2022/06/04 12:53:30;;;;;;;5.55;2.58;;;25.80;56.40;;;;;;5025933;28;20041;-66
2022/06/04 12:55:59;;;;;;;4.20;2.45;;;25.70;56.50;;;;;;5014026;28;20042;-66
2022/06/04 12:58:39;;;;;;;3.97;2.47;;;25.70;56.50;;;;;;5021989;28;20080;-66
2022/06/04 13:01:18;;;;;;;2.92;2.20;;;25.70;56.40;;;;;;5032858;28;20026;-66
2022/06/04 13:03:47;;;;;;;4.10;2.30;;;25.60;56.30;;;;;;5030585;28;20041;-66
2022/06/04 13:06:12;;;;;;;3.42;2.20;;;25.60;56.70;;;;;;4998975;28;20030;-65
2022/06/04 13:08:46;;;;;;;4.57;2.10;;;25.50;56.30;;;;;;5024522;28;20095;-65
2022/06/04 13:11:25;;;;;;;2.33;1.73;;;25.30;56.70;;;;;;5010504;28;20433;-65
2022/06/04 13:14:21;;;;;;;3.13;2.05;;;25.40;56.80;;;;;;5010934;28;20034;-66
2022/06/04 13:16:57;;;;;;;2.67;2.20;;;25.30;56.50;;;;;;5017890;28;20455;-66
2022/06/04 13:19:41;;;;;;;4.15;2.22;;;25.40;56.50;;;;;;5010631;28;20065;-66
2022/06/04 13:22:18;;;;;;;4.63;2.55;;;25.50;56.10;;;;;;5004842;28;20343;-66
2022/06/04 13:24:44;;;;;;;3.45;2.20;;;25.50;56.00;;;;;;5023915;28;20060;-65
2022/06/04 13:27:12;;;;;;;3.45;2.25;;;25.50;56.00;;;;;;5031236;28;20104;-65
2022/06/04 13:29:39;;;;;;;3.17;1.95;;;25.50;56.00;;;;;;5015199;28;20018;-65
2022/06/04 13:32:13;;;;;;;3.33;1.95;;;25.50;55.60;;;;;;5012586;28;20101;-65